createdAt,value
2022-09-09T00:03:26.914Z,79.23
2022-09-09T00:08:49.236Z,78.43
2022-09-09T00:13:57.341Z,77.78
2022-09-09T00:19:18.843Z,76.78
2022-09-09T00:24:37.118Z,75.74
2022-09-09T00:29:41.129Z,74.50
2022-09-09T00:35:22.715Z,74.01
2022-09-09T00:40:35.544Z,73.09
2022-09-09T00:46:07.463Z,72.23
2022-09-09T00:51:18.837Z,71.94
2022-09-09T00:56:29.413Z,72.22
2022-09-09T01:01:32.312Z,73.16
2022-09-09T01:06:40.644Z,73.57
2022-09-09T01:12:11.371Z,74.20
2022-09-09T01:17:28.256Z,73.93
2022-09-09T01:23:28.268Z,73.85
2022-09-09T01:28:56.768Z,73.85
2022-09-09T01:34:17.403Z,74.25
2022-09-09T01:39:22.094Z,74.39
2022-09-09T01:44:33.062Z,74.15
2022-09-09T01:49:36.804Z,74.69
2022-09-09T01:54:46.747Z,74.26
2022-09-09T02:00:02.283Z,73.93
2022-09-09T02:05:32.843Z,75.79
2022-09-09T02:11:05.324Z,73.09
2022-09-09T02:16:43.585Z,73.65
2022-09-09T02:21:47.812Z,73.91
2022-09-09T02:26:54.085Z,74.81
2022-09-09T02:32:01.104Z,75.71
2022-09-09T02:37:10.981Z,77.16
2022-09-09T02:42:15.958Z,77.72
2022-09-09T02:47:29.633Z,79.87
2022-09-09T02:52:46.181Z,76.37
2022-09-09T02:57:51.499Z,77.07
2022-09-09T03:02:56.551Z,77.98
2022-09-09T03:07:59.418Z,77.97
2022-09-09T03:13:02.264Z,76.79
2022-09-09T03:18:09.427Z,77.94
2022-09-09T03:23:15.956Z,80.43
2022-09-09T03:28:19.849Z,82.32
2022-09-09T03:33:22.655Z,83.26
2022-09-09T03:38:25.724Z,83.07
2022-09-09T03:43:29.379Z,83.20
2022-09-09T03:48:31.879Z,83.64
2022-09-09T03:53:35.592Z,83.98
2022-09-09T03:58:39.451Z,84.30
2022-09-09T04:03:44.204Z,84.90
2022-09-09T04:08:49.539Z,85.27
2022-09-09T04:13:52.104Z,85.66
2022-09-09T04:18:55.175Z,85.68
2022-09-09T04:23:58.057Z,86.54
2022-09-09T04:29:01.970Z,86.54
2022-09-09T04:34:06.362Z,86.55
2022-09-09T04:39:09.789Z,87.38
2022-09-09T04:44:12.212Z,87.86
2022-09-09T04:49:15.402Z,88.59
2022-09-09T04:54:20.082Z,89.65
2022-09-09T04:59:23.329Z,89.51
2022-09-09T05:04:29.964Z,90.46
2022-09-09T05:09:32.539Z,90.41
2022-09-09T05:14:38.460Z,89.80
2022-09-09T05:19:41.972Z,90.05
2022-09-09T05:24:45.215Z,89.94
2022-09-09T05:29:49.032Z,89.39
2022-09-09T05:34:52.600Z,87.78
2022-09-09T05:39:55.582Z,86.09
2022-09-09T05:44:59.162Z,84.58
2022-09-09T05:50:03.505Z,84.22
2022-09-09T05:55:06.587Z,84.42
2022-09-09T06:00:09.770Z,83.44
2022-09-09T06:05:16.252Z,84.01
2022-09-09T06:10:20.296Z,84.16
2022-09-09T06:15:22.806Z,84.04
2022-09-09T06:20:25.806Z,84.14
2022-09-09T06:25:28.347Z,84.56
2022-09-09T06:30:31.496Z,84.39
2022-09-09T06:35:34.016Z,83.79
2022-09-09T06:40:36.645Z,83.19
2022-09-09T06:45:39.496Z,82.31
2022-09-09T06:50:42.056Z,82.65
2022-09-09T06:55:45.910Z,81.77
2022-09-09T07:00:50.392Z,81.16
2022-09-09T07:05:57.334Z,80.48
2022-09-09T07:11:11.625Z,79.26
2022-09-09T07:16:19.274Z,78.40
2022-09-09T07:21:22.623Z,77.86
2022-09-09T07:26:28.813Z,77.79
2022-09-09T07:31:35.117Z,75.44
2022-09-09T07:36:40.930Z,74.01
2022-09-09T07:41:49.274Z,67.64
2022-09-09T07:46:54.970Z,66.21
2022-09-09T07:52:04.236Z,69.34
2022-09-09T07:57:07.362Z,69.26
2022-09-09T08:02:13.892Z,62.84
2022-09-09T08:07:17.399Z,61.32
2022-09-09T08:12:25.853Z,57.90
2022-09-09T08:17:28.798Z,56.11
2022-09-09T08:22:33.423Z,54.41
2022-09-09T08:27:35.970Z,55.62
2022-09-09T08:32:40.937Z,54.02
2022-09-09T08:37:46.351Z,52.76
2022-09-09T08:42:53.991Z,49.56
2022-09-09T08:48:40.159Z,46.97
2022-09-09T08:53:48.736Z,46.76
2022-09-09T08:58:54.133Z,49.85
2022-09-09T09:04:35.001Z,48.32
2022-09-09T09:10:30.507Z,53.70
2022-09-09T09:15:39.640Z,57.26
2022-09-09T09:21:03.432Z,59.25
2022-09-09T09:26:11.816Z,65.25
2022-09-09T09:31:15.134Z,71.44
2022-09-09T09:36:40.119Z,69.54
2022-09-09T09:41:44.545Z,61.43
2022-09-09T09:46:48.220Z,53.77
2022-09-09T09:51:53.331Z,47.84
2022-09-09T09:56:57.497Z,48.15
2022-09-09T10:02:18.806Z,47.47
2022-09-09T10:07:24.701Z,49.93
2022-09-09T10:12:46.343Z,45.04
2022-09-09T10:18:22.912Z,41.93
2022-09-09T10:23:52.239Z,42.14
2022-09-09T10:29:06.707Z,41.45
2022-09-09T10:34:29.787Z,42.59
2022-09-09T10:39:43.057Z,44.26
2022-09-09T10:45:24.187Z,48.65
2022-09-09T10:51:03.896Z,52.36
2022-09-09T10:56:13.854Z,47.27
2022-09-09T11:01:23.646Z,42.97
2022-09-09T11:06:36.381Z,44.25
2022-09-09T11:11:55.399Z,43.47
2022-09-09T11:17:11.363Z,46.47
2022-09-09T11:22:39.798Z,48.19
2022-09-09T11:28:03.214Z,47.39
2022-09-09T11:33:27.262Z,50.34
2022-09-09T11:38:33.608Z,53.89
2022-09-09T11:43:43.691Z,53.33
2022-09-09T11:48:58.592Z,54.12
2022-09-09T11:54:24.063Z,57.32
2022-09-09T11:59:33.748Z,56.36
2022-09-09T12:04:43.300Z,53.22
2022-09-09T12:09:52.838Z,52.28
2022-09-09T12:15:03.014Z,53.46
2022-09-09T12:20:16.643Z,53.36
2022-09-09T12:25:45.403Z,56.59
2022-09-09T12:30:56.163Z,52.79
2022-09-09T12:36:01.722Z,50.78
2022-09-09T12:41:04.528Z,51.97
2022-09-09T12:46:17.168Z,51.91
2022-09-09T12:51:29.436Z,51.94
2022-09-09T12:56:34.555Z,51.96
2022-09-09T13:01:37.665Z,52.80
2022-09-09T13:06:40.176Z,51.76
2022-09-09T13:11:51.586Z,50.13
2022-09-09T13:17:05.147Z,50.14
2022-09-09T13:22:38.219Z,49.04
2022-09-09T13:27:43.746Z,48.74
2022-09-09T13:32:46.151Z,39.68
2022-09-09T13:37:48.574Z,38.30
2022-09-09T13:42:56.850Z,39.89
2022-09-09T13:48:10.741Z,45.18
2022-09-09T13:53:13.117Z,44.14
2022-09-09T13:58:20.319Z,39.05
2022-09-09T14:03:22.985Z,42.98
2022-09-09T14:08:29.417Z,42.63
2022-09-09T14:13:33.916Z,38.55
2022-09-09T14:18:37.111Z,35.15
2022-09-09T14:23:39.970Z,40.56
2022-09-09T14:28:54.882Z,45.31
2022-09-09T14:33:58.380Z,43.90
2022-09-09T14:39:00.965Z,40.62
2022-09-09T14:44:05.793Z,40.81
2022-09-09T14:49:08.438Z,36.25
2022-09-09T14:54:11.874Z,41.66
2022-09-09T14:59:14.317Z,45.43
2022-09-09T15:04:17.876Z,38.92
2022-09-09T15:09:29.836Z,43.94
2022-09-09T15:14:32.918Z,46.37
2022-09-09T15:19:35.977Z,46.81
2022-09-09T15:24:38.361Z,48.87
2022-09-09T15:29:40.720Z,46.31
2022-09-09T15:34:43.123Z,46.41
2022-09-09T15:39:45.805Z,46.54
2022-09-09T15:44:48.203Z,48.07
2022-09-09T15:49:51.480Z,48.01
2022-09-09T15:54:53.951Z,50.97
2022-09-09T15:59:56.310Z,48.08
2022-09-09T16:05:02.256Z,47.63
2022-09-09T16:10:04.955Z,47.67
2022-09-09T16:15:08.337Z,48.13
2022-09-09T16:20:12.740Z,48.28
2022-09-09T16:25:15.611Z,48.54
2022-09-09T16:30:18.101Z,49.67
2022-09-09T16:35:22.061Z,54.41
2022-09-09T16:40:24.527Z,53.88
2022-09-09T16:45:26.935Z,51.07
2022-09-09T16:50:31.692Z,56.01
2022-09-09T16:55:35.135Z,54.76
2022-09-09T17:00:40.722Z,54.58
2022-09-09T17:05:43.502Z,56.28
2022-09-09T17:10:46.382Z,56.25
2022-09-09T17:15:48.813Z,57.54
2022-09-09T17:20:51.384Z,59.02
2022-09-09T17:26:01.240Z,59.22
2022-09-09T17:31:05.803Z,60.82
2022-09-09T17:36:15.336Z,60.59
2022-09-09T17:41:20.838Z,60.54
2022-09-09T17:46:32.507Z,63.06
2022-09-09T17:51:36.179Z,62.34
2022-09-09T17:56:39.574Z,63.17
2022-09-09T18:01:45.334Z,64.38
2022-09-09T18:06:50.187Z,65.54
2022-09-09T18:11:56.351Z,66.56
2022-09-09T18:17:00.401Z,67.34
2022-09-09T18:22:05.778Z,67.55
2022-09-09T18:27:10.210Z,67.86
2022-09-09T18:32:12.615Z,67.97
2022-09-09T18:37:15.434Z,68.14
2022-09-09T18:42:17.915Z,66.81
2022-09-09T18:47:21.650Z,67.07
2022-09-09T18:52:25.684Z,66.90
2022-09-09T18:57:31.273Z,66.17
2022-09-09T19:02:35.745Z,67.58
2022-09-09T19:07:41.432Z,68.06
2022-09-09T19:12:45.960Z,69.05
2022-09-09T19:17:50.683Z,67.97
2022-09-09T19:22:53.162Z,69.00
2022-09-09T19:27:55.516Z,69.02
2022-09-09T19:32:59.133Z,68.64
2022-09-09T19:38:01.803Z,68.39
2022-09-09T19:43:07.335Z,69.15
2022-09-09T19:48:12.344Z,70.14
2022-09-09T19:53:14.813Z,70.61
2022-09-09T19:58:18.333Z,70.89
2022-09-09T20:03:20.822Z,71.10
2022-09-09T20:08:23.255Z,71.42
2022-09-09T20:13:25.782Z,72.00
2022-09-09T20:18:32.519Z,72.62
2022-09-09T20:23:35.300Z,72.98
2022-09-09T20:28:39.311Z,73.45
2022-09-09T20:33:43.304Z,73.53
2022-09-09T20:38:51.498Z,73.33
2022-09-09T20:43:56.580Z,74.12
2022-09-09T20:49:03.049Z,74.89
2022-09-09T20:54:09.721Z,75.18
2022-09-09T20:59:14.362Z,75.71
2022-09-09T21:04:19.787Z,75.91
2022-09-09T21:09:25.314Z,75.74
2022-09-09T21:14:27.727Z,75.44
2022-09-09T21:19:30.398Z,75.55
2022-09-09T21:24:32.835Z,75.91
2022-09-09T21:29:37.730Z,76.33
2022-09-09T21:34:42.465Z,76.61
2022-09-09T21:39:45.465Z,76.98
2022-09-09T21:44:47.899Z,76.89
2022-09-09T21:49:51.034Z,76.89
2022-09-09T21:54:53.540Z,77.25
2022-09-09T21:59:56.105Z,77.13
2022-09-09T22:04:59.020Z,78.16
2022-09-09T22:10:01.530Z,78.83
2022-09-09T22:15:04.948Z,79.19
2022-09-09T22:20:08.631Z,79.23
2022-09-09T22:25:10.964Z,79.27
2022-09-09T22:30:13.543Z,79.38
2022-09-09T22:35:16.057Z,79.52
2022-09-09T22:40:18.515Z,79.65
2022-09-09T22:45:21.872Z,80.20
2022-09-09T22:50:25.496Z,79.78
2022-09-09T22:55:28.008Z,79.20
2022-09-09T23:00:30.479Z,79.39
2022-09-09T23:05:33.481Z,77.97
2022-09-09T23:10:35.830Z,77.49
2022-09-09T23:15:38.467Z,87.50
2022-09-09T23:20:41.645Z,93.89
2022-09-09T23:25:43.996Z,100.00
2022-09-09T23:30:47.153Z,100.00
2022-09-09T23:35:50.807Z,100.00
2022-09-09T23:40:53.255Z,100.00
2022-09-09T23:46:00.956Z,100.00
2022-09-09T23:51:03.755Z,100.00
2022-09-09T23:56:06.620Z,100.00
